createdAt,value
2018-12-30T00:00:38.851Z,57.78
2018-12-30T00:03:06.551Z,48.65
2018-12-30T00:05:34.230Z,46.23
2018-12-30T00:08:01.516Z,46.98
2018-12-30T00:10:28.827Z,50.38
2018-12-30T00:12:56.112Z,43.17
2018-12-30T00:15:23.791Z,41.77
2018-12-30T00:17:51.103Z,41.77
2018-12-30T00:20:18.378Z,61.75
2018-12-30T00:22:45.686Z,53.45
2018-12-30T00:25:12.971Z,47.67
2018-12-30T00:27:40.264Z,44.53
2018-12-30T00:30:08.282Z,43.58
2018-12-30T00:32:35.569Z,39.85
2018-12-30T00:35:02.867Z,35.65
2018-12-30T00:37:30.145Z,35.80
2018-12-30T00:39:57.430Z,44.77
2018-12-30T00:42:24.734Z,57.70
2018-12-30T00:44:52.315Z,56.55
2018-12-30T00:47:19.594Z,63.00
2018-12-30T00:49:46.904Z,66.87
2018-12-30T00:52:14.185Z,73.07
2018-12-30T00:54:41.501Z,76.80
2018-12-30T00:57:08.792Z,73.47
2018-12-30T00:59:36.084Z,78.00
2018-12-30T01:02:03.387Z,74.92
2018-12-30T01:04:30.669Z,74.90
2018-12-30T01:06:57.974Z,79.45
2018-12-30T01:09:25.300Z,80.65
2018-12-30T01:11:52.643Z,73.47
2018-12-30T01:14:20.027Z,78.30
2018-12-30T01:16:47.611Z,77.22
2018-12-30T01:19:14.923Z,79.70
2018-12-30T01:21:42.205Z,74.77
2018-12-30T01:24:09.490Z,72.30
2018-12-30T01:26:36.804Z,66.00
2018-12-30T01:29:04.110Z,72.78
2018-12-30T01:31:31.798Z,65.00
2018-12-30T01:33:59.082Z,64.72
2018-12-30T01:36:26.395Z,67.03
2018-12-30T01:38:53.680Z,65.25
2018-12-30T01:41:20.967Z,64.03
2018-12-30T01:43:48.284Z,70.00
2018-12-30T01:46:17.206Z,62.00
2018-12-30T01:48:44.502Z,58.00
2018-12-30T01:51:11.786Z,55.08
2018-12-30T01:53:39.101Z,57.17
2018-12-30T01:56:06.394Z,49.25
2018-12-30T01:58:33.679Z,47.53
2018-12-30T02:01:01.283Z,50.05
2018-12-30T02:03:28.572Z,51.68
2018-12-30T02:05:55.884Z,48.90
2018-12-30T02:08:23.164Z,52.33
2018-12-30T02:10:50.443Z,48.95
2018-12-30T02:13:17.756Z,51.18
2018-12-30T02:15:45.234Z,52.15
2018-12-30T02:18:12.517Z,50.38
2018-12-30T02:20:39.818Z,52.05
2018-12-30T02:23:07.099Z,49.48
2018-12-30T02:25:34.382Z,49.45
2018-12-30T02:28:01.683Z,48.85
2018-12-30T02:30:28.982Z,52.60
2018-12-30T02:32:56.297Z,55.92
2018-12-30T02:35:23.581Z,50.05
2018-12-30T02:37:50.891Z,51.13
2018-12-30T02:40:18.265Z,48.40
2018-12-30T02:42:45.948Z,53.73
2018-12-30T02:45:13.251Z,47.90
2018-12-30T02:47:40.536Z,49.98
2018-12-30T02:50:07.815Z,56.02
2018-12-30T02:52:35.127Z,47.27
2018-12-30T02:55:02.417Z,48.60
2018-12-30T02:57:29.895Z,56.77
2018-12-30T02:59:57.199Z,51.58
2018-12-30T03:02:24.504Z,54.60
2018-12-30T03:04:51.779Z,52.05
2018-12-30T03:07:19.098Z,47.95
2018-12-30T03:09:46.675Z,48.60
2018-12-30T03:12:13.959Z,49.88
2018-12-30T03:14:41.273Z,45.25
2018-12-30T03:17:08.561Z,50.58
2018-12-30T03:19:35.872Z,45.95
2018-12-30T03:22:03.156Z,41.23
2018-12-30T03:24:30.443Z,45.33
2018-12-30T03:26:57.743Z,44.70
2018-12-30T03:29:25.027Z,38.05
2018-12-30T03:31:52.332Z,46.13
2018-12-30T03:34:19.608Z,44.93
2018-12-30T03:36:46.881Z,48.68
2018-12-30T03:39:14.119Z,49.33
2018-12-30T03:41:41.407Z,53.02
2018-12-30T03:44:08.691Z,47.40
2018-12-30T03:46:36.014Z,55.23
2018-12-30T03:49:03.293Z,52.62
2018-12-30T03:51:31.097Z,53.60
2018-12-30T03:53:58.398Z,53.73
2018-12-30T03:56:25.707Z,55.00
2018-12-30T03:58:52.982Z,55.85
2018-12-30T04:01:20.201Z,53.05
2018-12-30T04:03:47.507Z,49.83
2018-12-30T04:06:14.792Z,52.48
2018-12-30T04:08:42.079Z,51.90
2018-12-30T04:11:09.374Z,50.50
2018-12-30T04:13:36.590Z,40.40
2018-12-30T04:16:03.886Z,40.90
2018-12-30T04:18:31.176Z,35.00
2018-12-30T04:20:58.461Z,30.25
2018-12-30T04:23:25.758Z,32.60
2018-12-30T04:25:52.958Z,26.45
2018-12-30T04:28:20.194Z,26.55
2018-12-30T04:30:47.484Z,24.27
2018-12-30T04:33:14.769Z,28.15
2018-12-30T04:35:42.075Z,25.10
2018-12-30T04:38:09.354Z,23.32
2018-12-30T04:40:36.636Z,24.12
2018-12-30T04:43:03.956Z,25.27
2018-12-30T04:45:31.259Z,28.65
2018-12-30T04:47:58.541Z,22.70
2018-12-30T04:50:25.820Z,25.60
2018-12-30T04:52:53.133Z,23.07
2018-12-30T04:55:20.407Z,22.17
2018-12-30T04:57:47.619Z,22.13
2018-12-30T05:00:14.933Z,18.55
2018-12-30T05:02:42.220Z,17.60
2018-12-30T05:05:09.513Z,14.60
2018-12-30T05:07:36.823Z,14.13
2018-12-30T05:10:04.675Z,13.85
2018-12-30T05:12:31.950Z,12.03
2018-12-30T05:14:59.261Z,12.90
2018-12-30T05:17:26.545Z,11.70
2018-12-30T05:19:53.828Z,12.33
2018-12-30T05:22:21.139Z,11.78
2018-12-30T05:24:48.411Z,11.00
2018-12-30T05:27:15.620Z,9.50
2018-12-30T05:29:42.923Z,10.55
2018-12-30T05:32:10.199Z,9.03
2018-12-30T05:34:37.470Z,10.68
2018-12-30T05:37:04.706Z,9.95
2018-12-30T05:39:31.982Z,8.33
2018-12-30T05:41:59.255Z,9.25
2018-12-30T05:44:26.546Z,7.70
2018-12-30T05:46:53.830Z,8.40
2018-12-30T05:49:21.119Z,8.18
2018-12-30T05:51:48.386Z,8.10
2018-12-30T05:54:15.682Z,6.72
2018-12-30T05:56:42.956Z,7.35
2018-12-30T05:59:10.234Z,7.35
2018-12-30T06:01:37.522Z,7.85
2018-12-30T06:04:04.719Z,7.80
2018-12-30T06:06:31.990Z,6.78
2018-12-30T06:08:59.290Z,7.70
2018-12-30T06:11:26.563Z,7.45
2018-12-30T06:13:53.771Z,7.45
2018-12-30T06:16:21.066Z,8.70
2018-12-30T06:18:48.274Z,7.10
2018-12-30T06:21:15.537Z,6.25
2018-12-30T06:23:42.839Z,6.95
2018-12-30T06:26:10.129Z,6.85
2018-12-30T06:28:37.404Z,6.65
2018-12-30T06:31:04.721Z,6.53
2018-12-30T06:33:31.992Z,7.50
2018-12-30T06:35:59.270Z,7.12
2018-12-30T06:38:26.572Z,7.00
2018-12-30T06:40:53.843Z,7.15
2018-12-30T06:43:21.062Z,6.67
2018-12-30T06:45:48.336Z,8.08
2018-12-30T06:48:15.620Z,8.15
2018-12-30T06:50:42.975Z,7.90
2018-12-30T06:53:10.182Z,7.10
2018-12-30T06:55:37.496Z,7.03
2018-12-30T06:58:04.772Z,7.50
2018-12-30T07:00:32.040Z,5.70
2018-12-30T07:02:59.342Z,6.95
2018-12-30T07:05:26.543Z,6.92
2018-12-30T07:07:53.810Z,6.58
2018-12-30T07:10:21.026Z,5.87
2018-12-30T07:12:48.303Z,6.35
2018-12-30T07:15:15.608Z,5.20
2018-12-30T07:17:42.879Z,5.90
2018-12-30T07:20:10.156Z,6.45
2018-12-30T07:22:37.454Z,5.30
2018-12-30T07:25:04.731Z,5.85
2018-12-30T07:27:32.003Z,6.58
2018-12-30T07:29:59.301Z,6.12
2018-12-30T07:32:26.506Z,5.92
2018-12-30T07:34:53.784Z,6.45
2018-12-30T07:37:21.079Z,5.65
2018-12-30T07:39:48.351Z,6.40
2018-12-30T07:42:15.622Z,6.10
2018-12-30T07:44:42.915Z,5.70
2018-12-30T07:47:10.187Z,6.15
2018-12-30T07:49:37.556Z,5.62
2018-12-30T07:52:04.832Z,6.75
2018-12-30T07:54:32.117Z,6.15
2018-12-30T07:56:59.413Z,6.20
2018-12-30T07:59:26.696Z,5.00
2018-12-30T08:01:53.991Z,5.35
2018-12-30T08:04:21.271Z,6.17
2018-12-30T08:06:48.551Z,5.55
2018-12-30T08:09:15.849Z,6.42
2018-12-30T08:11:43.118Z,5.83
2018-12-30T08:14:10.427Z,5.85
2018-12-30T08:16:37.704Z,4.97
2018-12-30T08:19:04.971Z,4.80
2018-12-30T08:21:32.192Z,5.03
2018-12-30T08:23:59.463Z,5.45
2018-12-30T08:26:26.683Z,5.03
2018-12-30T08:28:53.885Z,4.85
2018-12-30T08:31:21.191Z,5.20
2018-12-30T08:33:48.480Z,5.15
2018-12-30T08:36:15.756Z,5.37
2018-12-30T08:38:43.040Z,5.10
2018-12-30T08:41:10.345Z,6.30
2018-12-30T08:43:37.610Z,5.00
2018-12-30T08:46:04.821Z,5.53
2018-12-30T08:48:32.239Z,4.65
2018-12-30T08:50:59.530Z,6.12
2018-12-30T08:53:29.420Z,5.90
2018-12-30T08:55:55.743Z,5.60
2018-12-30T08:58:23.050Z,5.20
2018-12-30T09:00:50.357Z,5.25
2018-12-30T09:03:17.654Z,5.65
2018-12-30T09:05:44.928Z,5.62
2018-12-30T09:08:12.203Z,6.22
2018-12-30T09:10:39.503Z,5.35
2018-12-30T09:13:06.803Z,5.08
2018-12-30T09:15:34.195Z,4.97
2018-12-30T09:18:01.464Z,4.72
2018-12-30T09:20:28.807Z,5.67
2018-12-30T09:22:56.088Z,7.20
2018-12-30T09:25:23.360Z,5.20
2018-12-30T09:27:50.669Z,4.70
2018-12-30T09:30:18.858Z,4.87
2018-12-30T09:32:46.168Z,5.37
2018-12-30T09:35:13.482Z,4.35
2018-12-30T09:37:40.684Z,4.85
2018-12-30T09:40:07.985Z,4.55
2018-12-30T09:42:35.269Z,4.80
2018-12-30T09:45:02.571Z,5.17
2018-12-30T09:47:29.780Z,4.67
2018-12-30T09:49:57.038Z,4.92
2018-12-30T09:52:24.350Z,5.50
2018-12-30T09:54:51.611Z,5.30
2018-12-30T09:57:18.905Z,5.03
2018-12-30T09:59:46.190Z,4.53
2018-12-30T10:02:13.424Z,5.50
2018-12-30T10:04:40.701Z,6.45
2018-12-30T10:07:07.971Z,4.20
2018-12-30T10:09:35.275Z,5.95
2018-12-30T10:12:02.553Z,5.62
2018-12-30T10:14:29.837Z,4.65
2018-12-30T10:16:57.139Z,5.40
2018-12-30T10:19:24.423Z,7.58
2018-12-30T10:21:51.694Z,4.35
2018-12-30T10:24:18.924Z,5.25
2018-12-30T10:26:46.204Z,4.58
2018-12-30T10:29:13.516Z,6.37
2018-12-30T10:31:40.815Z,3.80
2018-12-30T10:34:08.025Z,4.15
2018-12-30T10:36:35.313Z,5.15
2018-12-30T10:39:04.084Z,4.50
2018-12-30T10:41:31.353Z,4.28
2018-12-30T10:43:58.636Z,4.75
2018-12-30T10:46:25.947Z,4.10
2018-12-30T10:48:53.228Z,4.37
2018-12-30T10:51:20.504Z,4.83
2018-12-30T10:53:47.799Z,4.30
2018-12-30T10:56:15.076Z,4.20
2018-12-30T10:58:42.270Z,3.80
2018-12-30T11:01:09.496Z,6.33
2018-12-30T11:03:36.771Z,5.20
2018-12-30T11:06:04.087Z,4.20
2018-12-30T11:08:31.369Z,5.15
2018-12-30T11:10:58.680Z,4.53
2018-12-30T11:13:25.991Z,4.95
2018-12-30T11:15:53.258Z,7.72
2018-12-30T11:18:20.500Z,4.45
2018-12-30T11:20:47.767Z,4.65
2018-12-30T11:23:15.075Z,4.80
2018-12-30T11:25:42.367Z,4.70
2018-12-30T11:28:09.931Z,4.03
2018-12-30T11:30:37.364Z,4.03
2018-12-30T11:33:04.683Z,4.30
2018-12-30T11:35:32.306Z,3.95
2018-12-30T11:37:59.794Z,4.80
2018-12-30T11:40:27.199Z,4.05
2018-12-30T11:42:54.458Z,4.15
2018-12-30T11:45:21.764Z,4.40
2018-12-30T11:47:49.058Z,3.98
2018-12-30T11:50:16.330Z,3.35
2018-12-30T11:52:43.548Z,5.45
2018-12-30T11:55:10.850Z,4.15
2018-12-30T11:57:38.119Z,4.25
2018-12-30T12:00:06.763Z,4.08
2018-12-30T12:02:34.054Z,3.95
2018-12-30T12:05:01.251Z,3.60
2018-12-30T12:07:28.556Z,3.77
2018-12-30T12:09:55.835Z,3.90
2018-12-30T12:12:23.135Z,4.05
2018-12-30T12:14:50.411Z,3.62
2018-12-30T12:17:17.692Z,4.17
2018-12-30T12:19:44.986Z,4.22
2018-12-30T12:22:12.263Z,5.30
2018-12-30T12:24:39.532Z,3.62
2018-12-30T12:27:06.848Z,3.95
2018-12-30T12:29:34.271Z,3.40
2018-12-30T12:32:01.535Z,4.10
2018-12-30T12:34:28.825Z,6.70
2018-12-30T12:36:56.111Z,4.30
2018-12-30T12:39:23.399Z,4.90
2018-12-30T12:41:50.599Z,4.40
2018-12-30T12:44:17.885Z,5.10
2018-12-30T12:46:45.193Z,3.77
2018-12-30T12:49:12.468Z,4.28
2018-12-30T12:51:39.759Z,4.92
2018-12-30T12:54:07.034Z,3.92
2018-12-30T12:56:34.315Z,4.28
2018-12-30T12:59:01.586Z,5.05
2018-12-30T13:01:28.803Z,4.25
2018-12-30T13:03:56.099Z,4.83
2018-12-30T13:06:23.446Z,4.87
2018-12-30T13:08:50.688Z,5.60
2018-12-30T13:11:17.974Z,3.30
2018-12-30T13:13:45.245Z,4.53
2018-12-30T13:16:12.539Z,4.87
2018-12-30T13:18:39.816Z,4.10
2018-12-30T13:21:07.087Z,5.00
2018-12-30T13:23:34.396Z,4.30
2018-12-30T13:26:01.670Z,4.03
2018-12-30T13:28:28.976Z,3.95
2018-12-30T13:30:56.292Z,3.87
2018-12-30T13:33:23.586Z,4.75
2018-12-30T13:35:50.789Z,4.47
2018-12-30T13:38:18.068Z,5.20
2018-12-30T13:40:45.369Z,3.90
2018-12-30T13:43:12.644Z,4.53
2018-12-30T13:45:39.923Z,4.95
2018-12-30T13:48:07.219Z,4.53
2018-12-30T13:50:34.483Z,3.83
2018-12-30T13:53:01.793Z,5.72
2018-12-30T13:55:29.058Z,4.55
2018-12-30T13:57:56.255Z,4.78
2018-12-30T14:00:23.554Z,5.10
2018-12-30T14:02:50.755Z,4.75
2018-12-30T14:05:18.036Z,5.12
2018-12-30T14:07:45.332Z,5.37
2018-12-30T14:10:12.610Z,5.00
2018-12-30T14:12:39.960Z,5.22
2018-12-30T14:15:07.274Z,5.55
2018-12-30T14:17:34.546Z,4.58
2018-12-30T14:20:01.827Z,4.40
2018-12-30T14:22:29.227Z,4.50
2018-12-30T14:24:56.511Z,4.62
2018-12-30T14:27:23.786Z,5.08
2018-12-30T14:29:51.087Z,4.67
2018-12-30T14:32:18.361Z,5.35
2018-12-30T14:34:45.634Z,5.80
2018-12-30T14:37:12.948Z,4.55
2018-12-30T14:39:40.219Z,5.72
2018-12-30T14:42:07.490Z,4.90
2018-12-30T14:44:34.717Z,5.30
2018-12-30T14:47:01.992Z,5.22
2018-12-30T14:49:29.289Z,5.45
2018-12-30T14:51:56.563Z,5.35
2018-12-30T14:54:23.842Z,5.17
2018-12-30T14:56:51.131Z,5.40
2018-12-30T14:59:18.411Z,6.05
2018-12-30T15:01:45.718Z,7.62
2018-12-30T15:04:12.990Z,7.22
2018-12-30T15:06:40.189Z,6.67
2018-12-30T15:09:07.550Z,7.25
2018-12-30T15:11:34.774Z,6.97
2018-12-30T15:14:02.059Z,7.33
2018-12-30T15:16:29.340Z,7.65
2018-12-30T15:18:56.639Z,7.12
2018-12-30T15:21:23.912Z,6.75
2018-12-30T15:23:51.223Z,6.90
2018-12-30T15:26:18.487Z,7.35
2018-12-30T15:28:47.126Z,7.10
2018-12-30T15:31:14.562Z,7.00
2018-12-30T15:33:41.772Z,7.67
2018-12-30T15:36:09.050Z,6.65
2018-12-30T15:38:36.356Z,6.80
2018-12-30T15:41:03.635Z,7.30
2018-12-30T15:43:30.914Z,6.72
2018-12-30T15:45:58.234Z,6.95
2018-12-30T15:48:25.436Z,7.28
2018-12-30T15:50:52.716Z,6.65
2018-12-30T15:53:20.021Z,7.97
2018-12-30T15:55:47.294Z,7.62
2018-12-30T15:58:14.524Z,7.30
2018-12-30T16:00:41.795Z,7.35
2018-12-30T16:03:09.079Z,7.42
2018-12-30T16:05:36.383Z,8.33
2018-12-30T16:08:03.658Z,8.55
2018-12-30T16:10:30.940Z,7.55
2018-12-30T16:12:58.238Z,7.70
2018-12-30T16:15:25.452Z,8.35
2018-12-30T16:17:52.723Z,8.85
2018-12-30T16:20:19.947Z,7.83
2018-12-30T16:22:47.239Z,8.73
2018-12-30T16:25:14.473Z,8.28
2018-12-30T16:27:41.756Z,8.28
2018-12-30T16:30:09.603Z,9.18
2018-12-30T16:32:36.908Z,8.48
2018-12-30T16:35:04.186Z,9.75
2018-12-30T16:37:31.483Z,9.80
2018-12-30T16:39:58.697Z,11.03
2018-12-30T16:42:25.971Z,9.95
2018-12-30T16:44:53.288Z,9.68
2018-12-30T16:47:20.558Z,12.35
2018-12-30T16:49:47.774Z,10.93
2018-12-30T16:52:15.076Z,11.90
2018-12-30T16:54:42.365Z,12.73
2018-12-30T16:57:09.676Z,12.82
2018-12-30T16:59:36.983Z,12.33
2018-12-30T17:02:04.269Z,11.40
2018-12-30T17:04:31.556Z,12.43
2018-12-30T17:06:58.863Z,12.53
2018-12-30T17:09:26.206Z,14.13
2018-12-30T17:11:53.524Z,11.55
2018-12-30T17:14:20.807Z,11.20
2018-12-30T17:16:48.087Z,12.90
2018-12-30T17:19:15.392Z,10.70
2018-12-30T17:21:42.663Z,12.25
2018-12-30T17:24:09.945Z,14.43
2018-12-30T17:26:37.255Z,12.50
2018-12-30T17:29:04.530Z,12.68
2018-12-30T17:31:31.748Z,14.43
2018-12-30T17:33:59.054Z,17.00
2018-12-30T17:36:26.334Z,14.83
2018-12-30T17:38:53.615Z,15.25
2018-12-30T17:41:20.925Z,14.28
2018-12-30T17:43:48.227Z,14.80
2018-12-30T17:46:18.387Z,15.30
2018-12-30T17:48:44.477Z,15.75
2018-12-30T17:51:11.787Z,15.60
2018-12-30T17:53:39.070Z,16.17
2018-12-30T17:56:07.262Z,13.35
2018-12-30T17:58:34.759Z,14.23
2018-12-30T18:01:02.056Z,15.25
2018-12-30T18:03:29.334Z,15.40
2018-12-30T18:05:56.563Z,11.57
2018-12-30T18:08:23.878Z,15.40
2018-12-30T18:10:51.160Z,15.58
2018-12-30T18:13:18.443Z,15.50
2018-12-30T18:15:45.825Z,15.43
2018-12-30T18:18:13.103Z,14.05
2018-12-30T18:20:40.384Z,14.45
2018-12-30T18:23:07.705Z,15.63
2018-12-30T18:25:34.979Z,15.55
2018-12-30T18:28:02.359Z,10.98
2018-12-30T18:30:29.663Z,13.40
2018-12-30T18:32:56.950Z,13.90
2018-12-30T18:35:24.248Z,12.68
2018-12-30T18:37:51.532Z,12.68
2018-12-30T18:40:18.826Z,17.52
2018-12-30T18:42:46.067Z,15.08
2018-12-30T18:45:13.347Z,14.78
2018-12-30T18:47:40.642Z,14.47
2018-12-30T18:50:08.655Z,14.70
2018-12-30T18:52:35.943Z,15.63
2018-12-30T18:55:03.229Z,15.72
2018-12-30T18:57:30.538Z,14.55
2018-12-30T18:59:57.815Z,13.30
2018-12-30T19:02:25.091Z,15.95
2018-12-30T19:04:52.394Z,16.27
2018-12-30T19:07:19.690Z,16.15
2018-12-30T19:09:46.986Z,14.58
2018-12-30T19:12:14.195Z,15.85
2018-12-30T19:14:41.471Z,14.95
2018-12-30T19:17:08.790Z,14.65
2018-12-30T19:19:36.079Z,14.98
2018-12-30T19:22:03.363Z,13.60
2018-12-30T19:24:30.723Z,13.35
2018-12-30T19:26:57.993Z,12.98
2018-12-30T19:29:25.287Z,16.17
2018-12-30T19:31:52.593Z,14.28
2018-12-30T19:34:19.872Z,14.07
2018-12-30T19:36:47.177Z,13.00
2018-12-30T19:39:14.464Z,12.18
2018-12-30T19:41:41.746Z,11.48
2018-12-30T19:44:09.047Z,13.50
2018-12-30T19:46:36.355Z,11.25
2018-12-30T19:49:03.630Z,12.70
2018-12-30T19:51:30.911Z,12.45
2018-12-30T19:53:58.223Z,13.10
2018-12-30T19:56:25.496Z,12.30
2018-12-30T19:58:52.771Z,14.07
2018-12-30T20:01:20.072Z,12.78
2018-12-30T20:03:47.403Z,12.20
2018-12-30T20:06:14.702Z,13.40
2018-12-30T20:08:41.979Z,11.75
2018-12-30T20:11:09.376Z,12.78
2018-12-30T20:13:36.710Z,11.97
2018-12-30T20:16:03.926Z,12.55
2018-12-30T20:18:31.251Z,12.88
2018-12-30T20:20:58.540Z,11.88
2018-12-30T20:23:25.828Z,12.15
2018-12-30T20:25:53.131Z,12.70
2018-12-30T20:28:20.415Z,13.45
2018-12-30T20:30:47.708Z,13.13
2018-12-30T20:33:15.003Z,12.43
2018-12-30T20:35:42.220Z,12.37
2018-12-30T20:38:09.514Z,11.88
2018-12-30T20:40:36.818Z,12.13
2018-12-30T20:43:04.097Z,12.63
2018-12-30T20:45:31.315Z,10.88
2018-12-30T20:47:58.627Z,12.05
2018-12-30T20:50:25.907Z,12.47
2018-12-30T20:52:53.200Z,13.53
2018-12-30T20:55:20.507Z,12.60
2018-12-30T20:57:47.792Z,11.88
2018-12-30T21:00:15.502Z,12.93
2018-12-30T21:02:42.999Z,12.20
2018-12-30T21:05:10.269Z,12.75
2018-12-30T21:07:37.511Z,13.00
2018-12-30T21:10:05.864Z,13.38
2018-12-30T21:12:33.169Z,13.18
2018-12-30T21:15:00.450Z,12.93
2018-12-30T21:17:27.667Z,12.23
2018-12-30T21:19:54.962Z,13.15
2018-12-30T21:22:22.173Z,13.93
2018-12-30T21:24:49.459Z,13.50
2018-12-30T21:27:16.767Z,10.08
2018-12-30T21:29:44.054Z,12.53
2018-12-30T21:32:11.326Z,13.58
2018-12-30T21:34:38.627Z,11.05
2018-12-30T21:37:05.852Z,11.48
2018-12-30T21:39:33.127Z,12.88
2018-12-30T21:42:00.441Z,12.43
2018-12-30T21:44:27.726Z,11.08
2018-12-30T21:46:54.994Z,13.25
2018-12-30T21:49:22.218Z,12.63
2018-12-30T21:51:49.425Z,11.65
2018-12-30T21:54:16.710Z,11.95
2018-12-30T21:56:44.018Z,12.58
2018-12-30T21:59:11.299Z,13.48
2018-12-30T22:01:38.601Z,11.40
2018-12-30T22:04:05.899Z,12.78
2018-12-30T22:06:33.251Z,13.32
2018-12-30T22:09:00.566Z,11.40
2018-12-30T22:11:27.859Z,13.50
2018-12-30T22:13:55.138Z,9.70
2018-12-30T22:16:22.459Z,12.03
2018-12-30T22:18:49.724Z,11.90
2018-12-30T22:21:17.035Z,12.85
2018-12-30T22:23:44.310Z,12.33
2018-12-30T22:26:11.590Z,12.75
2018-12-30T22:28:38.911Z,12.70
2018-12-30T22:31:06.187Z,13.95
2018-12-30T22:33:33.472Z,12.70
2018-12-30T22:36:00.779Z,12.88
2018-12-30T22:38:28.146Z,12.55
2018-12-30T22:40:55.386Z,11.68
2018-12-30T22:43:22.671Z,12.78
2018-12-30T22:45:49.961Z,11.93
2018-12-30T22:48:17.267Z,9.98
2018-12-30T22:50:44.491Z,11.60
2018-12-30T22:53:11.771Z,11.78
2018-12-30T22:55:39.075Z,13.80
2018-12-30T22:58:06.359Z,12.28
2018-12-30T23:00:53.632Z,12.73
2018-12-30T23:03:20.919Z,13.45
2018-12-30T23:05:48.201Z,13.72
2018-12-30T23:08:15.500Z,12.40
2018-12-30T23:10:43.368Z,13.68
2018-12-30T23:13:10.658Z,13.43
2018-12-30T23:15:37.860Z,12.73
2018-12-30T23:18:05.245Z,12.47
2018-12-30T23:20:32.557Z,14.07
2018-12-30T23:22:59.842Z,12.53
2018-12-30T23:25:27.128Z,12.15
2018-12-30T23:27:54.440Z,12.15
2018-12-30T23:30:21.739Z,12.53
2018-12-30T23:32:49.041Z,10.65
2018-12-30T23:35:16.379Z,11.08
2018-12-30T23:37:43.586Z,12.43
2018-12-30T23:40:10.867Z,12.65
2018-12-30T23:42:38.180Z,11.25
2018-12-30T23:45:05.467Z,13.43
2018-12-30T23:47:32.752Z,11.48
2018-12-30T23:50:00.244Z,10.98
2018-12-30T23:52:27.507Z,12.55
2018-12-30T23:54:54.722Z,13.15
2018-12-30T23:57:22.032Z,14.15
2018-12-30T23:59:49.315Z,13.65
